sensor_id;sensor_type;location;lat;lon;timestamp;P1;durP1;ratioP1;P2;durP2;ratioP2
53833;SDS011;39735;51.432;5.482;2022-11-20T00:00:43;29.52;;;16.13;;
53833;SDS011;39735;51.432;5.482;2022-11-20T00:03:08;30.85;;;16.17;;
53833;SDS011;39735;51.432;5.482;2022-11-20T00:05:34;34.75;;;17.40;;
53833;SDS011;39735;51.432;5.482;2022-11-20T00:07:59;26.10;;;16.52;;
53833;SDS011;39735;51.432;5.482;2022-11-20T00:10:24;24.45;;;17.15;;
53833;SDS011;39735;51.432;5.482;2022-11-20T00:12:50;32.90;;;17.85;;
53833;SDS011;39735;51.432;5.482;2022-11-20T00:15:15;24.80;;;15.73;;
53833;SDS011;39735;51.432;5.482;2022-11-20T00:17:40;22.45;;;15.70;;
53833;SDS011;39735;51.432;5.482;2022-11-20T00:20:06;34.08;;;17.73;;
53833;SDS011;39735;51.432;5.482;2022-11-20T00:22:31;30.60;;;17.85;;
53833;SDS011;39735;51.432;5.482;2022-11-20T00:24:57;30.08;;;15.02;;
53833;SDS011;39735;51.432;5.482;2022-11-20T00:27:22;41.20;;;15.60;;
53833;SDS011;39735;51.432;5.482;2022-11-20T00:29:48;26.40;;;17.00;;
53833;SDS011;39735;51.432;5.482;2022-11-20T00:32:13;27.00;;;16.05;;
53833;SDS011;39735;51.432;5.482;2022-11-20T00:34:39;29.95;;;17.80;;
53833;SDS011;39735;51.432;5.482;2022-11-20T00:37:04;25.17;;;16.45;;
53833;SDS011;39735;51.432;5.482;2022-11-20T00:39:29;38.53;;;17.33;;
53833;SDS011;39735;51.432;5.482;2022-11-20T00:41:55;28.70;;;19.33;;
53833;SDS011;39735;51.432;5.482;2022-11-20T00:44:20;22.15;;;15.77;;
53833;SDS011;39735;51.432;5.482;2022-11-20T00:46:45;31.08;;;19.60;;
53833;SDS011;39735;51.432;5.482;2022-11-20T00:49:11;31.52;;;17.98;;
53833;SDS011;39735;51.432;5.482;2022-11-20T00:51:36;26.42;;;18.58;;
53833;SDS011;39735;51.432;5.482;2022-11-20T00:54:01;33.25;;;17.50;;
53833;SDS011;39735;51.432;5.482;2022-11-20T00:56:27;34.03;;;18.52;;
53833;SDS011;39735;51.432;5.482;2022-11-20T00:58:52;28.83;;;16.83;;
53833;SDS011;39735;51.432;5.482;2022-11-20T01:01:20;28.55;;;17.13;;
53833;SDS011;39735;51.432;5.482;2022-11-20T01:03:49;33.15;;;19.05;;
53833;SDS011;39735;51.432;5.482;2022-11-20T01:08:42;36.08;;;19.33;;
53833;SDS011;39735;51.432;5.482;2022-11-20T01:11:09;31.63;;;20.40;;
53833;SDS011;39735;51.432;5.482;2022-11-20T01:13:36;39.15;;;18.70;;
53833;SDS011;39735;51.432;5.482;2022-11-20T01:16:46;27.83;;;18.02;;
53833;SDS011;39735;51.432;5.482;2022-11-20T01:18:53;45.45;;;19.05;;
53833;SDS011;39735;51.432;5.482;2022-11-20T01:21:24;29.88;;;17.35;;
53833;SDS011;39735;51.432;5.482;2022-11-20T01:23:51;35.00;;;20.05;;
53833;SDS011;39735;51.432;5.482;2022-11-20T01:26:19;24.52;;;16.92;;
53833;SDS011;39735;51.432;5.482;2022-11-20T01:28:48;35.90;;;19.55;;
53833;SDS011;39735;51.432;5.482;2022-11-20T01:31:18;26.58;;;19.17;;
53833;SDS011;39735;51.432;5.482;2022-11-20T01:33:49;27.52;;;17.25;;
53833;SDS011;39735;51.432;5.482;2022-11-20T01:36:16;25.95;;;17.52;;
53833;SDS011;39735;51.432;5.482;2022-11-20T01:38:42;31.80;;;17.85;;
53833;SDS011;39735;51.432;5.482;2022-11-20T01:41:08;31.02;;;20.58;;
53833;SDS011;39735;51.432;5.482;2022-11-20T01:43:34;27.05;;;17.67;;
53833;SDS011;39735;51.432;5.482;2022-11-20T01:48:40;23.65;;;17.83;;
53833;SDS011;39735;51.432;5.482;2022-11-20T01:51:15;32.95;;;19.90;;
53833;SDS011;39735;51.432;5.482;2022-11-20T01:56:09;29.70;;;20.25;;
53833;SDS011;39735;51.432;5.482;2022-11-20T01:58:37;29.58;;;16.98;;
53833;SDS011;39735;51.432;5.482;2022-11-20T02:01:04;39.88;;;18.27;;
53833;SDS011;39735;51.432;5.482;2022-11-20T02:03:30;28.15;;;17.58;;
53833;SDS011;39735;51.432;5.482;2022-11-20T02:08:51;46.03;;;22.50;;
53833;SDS011;39735;51.432;5.482;2022-11-20T02:11:17;34.35;;;21.80;;
53833;SDS011;39735;51.432;5.482;2022-11-20T02:13:43;35.75;;;22.02;;
53833;SDS011;39735;51.432;5.482;2022-11-20T02:16:14;36.95;;;21.98;;
53833;SDS011;39735;51.432;5.482;2022-11-20T02:18:40;39.38;;;21.00;;
53833;SDS011;39735;51.432;5.482;2022-11-20T02:24:05;32.28;;;20.70;;
53833;SDS011;39735;51.432;5.482;2022-11-20T02:26:33;38.95;;;20.58;;
53833;SDS011;39735;51.432;5.482;2022-11-20T02:29:02;34.78;;;21.27;;
53833;SDS011;39735;51.432;5.482;2022-11-20T02:31:28;39.30;;;21.25;;
53833;SDS011;39735;51.432;5.482;2022-11-20T02:33:54;29.65;;;19.52;;
53833;SDS011;39735;51.432;5.482;2022-11-20T02:36:23;35.08;;;20.77;;
53833;SDS011;39735;51.432;5.482;2022-11-20T02:38:49;33.72;;;19.88;;
53833;SDS011;39735;51.432;5.482;2022-11-20T02:41:15;37.75;;;23.15;;
53833;SDS011;39735;51.432;5.482;2022-11-20T02:43:40;28.38;;;19.15;;
53833;SDS011;39735;51.432;5.482;2022-11-20T02:46:06;36.70;;;19.75;;
53833;SDS011;39735;51.432;5.482;2022-11-20T02:48:32;30.38;;;20.45;;
53833;SDS011;39735;51.432;5.482;2022-11-20T02:50:57;29.58;;;19.20;;
53833;SDS011;39735;51.432;5.482;2022-11-20T02:53:23;38.85;;;20.85;;
53833;SDS011;39735;51.432;5.482;2022-11-20T02:55:48;32.63;;;20.98;;
53833;SDS011;39735;51.432;5.482;2022-11-20T02:58:13;35.45;;;20.33;;
53833;SDS011;39735;51.432;5.482;2022-11-20T03:00:39;30.50;;;18.98;;
53833;SDS011;39735;51.432;5.482;2022-11-20T03:03:04;27.08;;;17.80;;
53833;SDS011;39735;51.432;5.482;2022-11-20T03:05:30;34.22;;;20.42;;
53833;SDS011;39735;51.432;5.482;2022-11-20T03:07:55;26.15;;;17.58;;
53833;SDS011;39735;51.432;5.482;2022-11-20T03:10:20;29.95;;;20.45;;
53833;SDS011;39735;51.432;5.482;2022-11-20T03:12:46;30.67;;;19.83;;
53833;SDS011;39735;51.432;5.482;2022-11-20T03:15:11;38.58;;;20.85;;
53833;SDS011;39735;51.432;5.482;2022-11-20T03:17:36;33.25;;;19.10;;
53833;SDS011;39735;51.432;5.482;2022-11-20T03:20:02;42.22;;;20.35;;
53833;SDS011;39735;51.432;5.482;2022-11-20T03:22:31;44.42;;;20.88;;
53833;SDS011;39735;51.432;5.482;2022-11-20T03:24:56;29.20;;;18.83;;
53833;SDS011;39735;51.432;5.482;2022-11-20T03:27:21;34.45;;;17.10;;
53833;SDS011;39735;51.432;5.482;2022-11-20T03:29:47;29.63;;;18.48;;
53833;SDS011;39735;51.432;5.482;2022-11-20T03:32:12;34.28;;;18.80;;
53833;SDS011;39735;51.432;5.482;2022-11-20T03:34:37;26.92;;;18.95;;
53833;SDS011;39735;51.432;5.482;2022-11-20T03:37:03;34.03;;;17.45;;
53833;SDS011;39735;51.432;5.482;2022-11-20T03:39:28;31.23;;;20.90;;
53833;SDS011;39735;51.432;5.482;2022-11-20T03:41:53;30.45;;;18.85;;
53833;SDS011;39735;51.432;5.482;2022-11-20T03:44:20;28.50;;;18.73;;
53833;SDS011;39735;51.432;5.482;2022-11-20T03:46:46;27.90;;;18.52;;
53833;SDS011;39735;51.432;5.482;2022-11-20T03:49:11;26.95;;;18.55;;
53833;SDS011;39735;51.432;5.482;2022-11-20T03:51:36;28.67;;;17.98;;
53833;SDS011;39735;51.432;5.482;2022-11-20T03:54:03;32.20;;;20.10;;
53833;SDS011;39735;51.432;5.482;2022-11-20T03:56:34;34.17;;;18.58;;
53833;SDS011;39735;51.432;5.482;2022-11-20T03:59:01;34.78;;;20.77;;
53833;SDS011;39735;51.432;5.482;2022-11-20T04:01:27;35.90;;;20.88;;
53833;SDS011;39735;51.432;5.482;2022-11-20T04:03:55;40.70;;;20.85;;
53833;SDS011;39735;51.432;5.482;2022-11-20T04:06:22;36.45;;;20.10;;
53833;SDS011;39735;51.432;5.482;2022-11-20T04:08:49;38.28;;;21.02;;
53833;SDS011;39735;51.432;5.482;2022-11-20T04:11:19;41.25;;;22.60;;
53833;SDS011;39735;51.432;5.482;2022-11-20T04:13:54;40.45;;;21.10;;
53833;SDS011;39735;51.432;5.482;2022-11-20T04:16:21;35.78;;;22.08;;
53833;SDS011;39735;51.432;5.482;2022-11-20T04:18:51;35.90;;;18.80;;
53833;SDS011;39735;51.432;5.482;2022-11-20T04:21:20;36.53;;;22.55;;
53833;SDS011;39735;51.432;5.482;2022-11-20T04:23:46;31.05;;;20.25;;
53833;SDS011;39735;51.432;5.482;2022-11-20T04:26:12;34.00;;;19.80;;
53833;SDS011;39735;51.432;5.482;2022-11-20T04:28:37;32.72;;;18.27;;
53833;SDS011;39735;51.432;5.482;2022-11-20T04:31:10;35.67;;;21.23;;
53833;SDS011;39735;51.432;5.482;2022-11-20T04:33:37;29.83;;;19.55;;
53833;SDS011;39735;51.432;5.482;2022-11-20T04:36:24;36.70;;;21.52;;
53833;SDS011;39735;51.432;5.482;2022-11-20T04:38:50;33.22;;;19.13;;
53833;SDS011;39735;51.432;5.482;2022-11-20T04:41:17;39.28;;;20.13;;
53833;SDS011;39735;51.432;5.482;2022-11-20T04:43:47;33.88;;;20.95;;
53833;SDS011;39735;51.432;5.482;2022-11-20T04:46:14;34.92;;;19.13;;
53833;SDS011;39735;51.432;5.482;2022-11-20T04:48:40;30.27;;;18.90;;
53833;SDS011;39735;51.432;5.482;2022-11-20T04:51:05;35.17;;;21.17;;
53833;SDS011;39735;51.432;5.482;2022-11-20T04:53:31;32.15;;;19.70;;
53833;SDS011;39735;51.432;5.482;2022-11-20T04:56:00;41.88;;;23.00;;
53833;SDS011;39735;51.432;5.482;2022-11-20T04:58:26;36.20;;;20.27;;
53833;SDS011;39735;51.432;5.482;2022-11-20T05:00:51;28.20;;;20.42;;
53833;SDS011;39735;51.432;5.482;2022-11-20T05:03:17;34.28;;;19.58;;
53833;SDS011;39735;51.432;5.482;2022-11-20T05:05:42;33.97;;;19.25;;
53833;SDS011;39735;51.432;5.482;2022-11-20T05:08:07;35.08;;;20.25;;
53833;SDS011;39735;51.432;5.482;2022-11-20T05:10:33;30.08;;;18.48;;
53833;SDS011;39735;51.432;5.482;2022-11-20T05:12:58;31.25;;;18.35;;
53833;SDS011;39735;51.432;5.482;2022-11-20T05:15:23;27.80;;;17.63;;
53833;SDS011;39735;51.432;5.482;2022-11-20T05:17:49;39.60;;;21.17;;
53833;SDS011;39735;51.432;5.482;2022-11-20T05:20:15;36.17;;;19.52;;
53833;SDS011;39735;51.432;5.482;2022-11-20T05:22:41;32.35;;;19.27;;
53833;SDS011;39735;51.432;5.482;2022-11-20T05:25:07;29.35;;;19.77;;
53833;SDS011;39735;51.432;5.482;2022-11-20T05:27:32;35.38;;;19.95;;
53833;SDS011;39735;51.432;5.482;2022-11-20T05:29:58;26.38;;;18.65;;
53833;SDS011;39735;51.432;5.482;2022-11-20T05:32:23;30.00;;;19.27;;
53833;SDS011;39735;51.432;5.482;2022-11-20T05:34:50;30.35;;;19.27;;
53833;SDS011;39735;51.432;5.482;2022-11-20T05:37:18;30.13;;;19.13;;
53833;SDS011;39735;51.432;5.482;2022-11-20T05:39:43;33.42;;;19.63;;
53833;SDS011;39735;51.432;5.482;2022-11-20T05:42:09;30.90;;;21.38;;
53833;SDS011;39735;51.432;5.482;2022-11-20T05:44:53;27.47;;;17.40;;
53833;SDS011;39735;51.432;5.482;2022-11-20T05:47:18;28.80;;;18.50;;
53833;SDS011;39735;51.432;5.482;2022-11-20T05:49:43;28.27;;;20.77;;
53833;SDS011;39735;51.432;5.482;2022-11-20T05:52:09;31.23;;;19.35;;
53833;SDS011;39735;51.432;5.482;2022-11-20T05:54:34;35.90;;;19.30;;
53833;SDS011;39735;51.432;5.482;2022-11-20T05:56:59;29.17;;;19.80;;
53833;SDS011;39735;51.432;5.482;2022-11-20T05:59:25;29.40;;;20.55;;
53833;SDS011;39735;51.432;5.482;2022-11-20T06:01:50;30.92;;;19.80;;
53833;SDS011;39735;51.432;5.482;2022-11-20T06:04:15;26.67;;;17.45;;
53833;SDS011;39735;51.432;5.482;2022-11-20T06:06:41;33.47;;;20.63;;
53833;SDS011;39735;51.432;5.482;2022-11-20T06:09:06;38.08;;;21.33;;
53833;SDS011;39735;51.432;5.482;2022-11-20T06:11:32;27.63;;;18.92;;
53833;SDS011;39735;51.432;5.482;2022-11-20T06:13:57;31.38;;;19.90;;
53833;SDS011;39735;51.432;5.482;2022-11-20T06:16:22;33.08;;;21.23;;
53833;SDS011;39735;51.432;5.482;2022-11-20T06:18:48;30.30;;;21.27;;
53833;SDS011;39735;51.432;5.482;2022-11-20T06:21:17;40.97;;;21.42;;
53833;SDS011;39735;51.432;5.482;2022-11-20T06:23:45;28.08;;;19.08;;
53833;SDS011;39735;51.432;5.482;2022-11-20T06:26:12;31.92;;;18.95;;
53833;SDS011;39735;51.432;5.482;2022-11-20T06:28:39;29.10;;;18.63;;
53833;SDS011;39735;51.432;5.482;2022-11-20T06:31:05;32.35;;;19.45;;
53833;SDS011;39735;51.432;5.482;2022-11-20T06:33:30;30.52;;;21.05;;
53833;SDS011;39735;51.432;5.482;2022-11-20T06:35:56;32.60;;;19.23;;
53833;SDS011;39735;51.432;5.482;2022-11-20T06:38:23;33.13;;;20.40;;
53833;SDS011;39735;51.432;5.482;2022-11-20T06:40:49;33.00;;;18.25;;
53833;SDS011;39735;51.432;5.482;2022-11-20T06:43:14;46.88;;;20.42;;
53833;SDS011;39735;51.432;5.482;2022-11-20T06:45:40;32.95;;;19.65;;
53833;SDS011;39735;51.432;5.482;2022-11-20T06:48:05;26.77;;;18.35;;
53833;SDS011;39735;51.432;5.482;2022-11-20T06:50:31;30.27;;;20.08;;
53833;SDS011;39735;51.432;5.482;2022-11-20T06:52:56;36.35;;;19.20;;
53833;SDS011;39735;51.432;5.482;2022-11-20T06:55:21;27.70;;;17.52;;
53833;SDS011;39735;51.432;5.482;2022-11-20T06:57:47;33.25;;;20.30;;
53833;SDS011;39735;51.432;5.482;2022-11-20T07:00:12;29.42;;;18.67;;
53833;SDS011;39735;51.432;5.482;2022-11-20T07:02:38;30.02;;;18.23;;
53833;SDS011;39735;51.432;5.482;2022-11-20T07:05:03;26.42;;;18.13;;
53833;SDS011;39735;51.432;5.482;2022-11-20T07:07:29;27.17;;;18.88;;
53833;SDS011;39735;51.432;5.482;2022-11-20T07:09:55;34.53;;;18.90;;
53833;SDS011;39735;51.432;5.482;2022-11-20T07:12:20;28.92;;;19.70;;
53833;SDS011;39735;51.432;5.482;2022-11-20T07:14:45;30.02;;;19.80;;
53833;SDS011;39735;51.432;5.482;2022-11-20T07:17:11;23.83;;;17.90;;
53833;SDS011;39735;51.432;5.482;2022-11-20T07:19:37;34.65;;;17.83;;
53833;SDS011;39735;51.432;5.482;2022-11-20T07:22:02;35.70;;;18.25;;
53833;SDS011;39735;51.432;5.482;2022-11-20T07:24:27;31.15;;;20.17;;
53833;SDS011;39735;51.432;5.482;2022-11-20T07:26:53;27.05;;;17.73;;
53833;SDS011;39735;51.432;5.482;2022-11-20T07:29:18;26.00;;;19.20;;
53833;SDS011;39735;51.432;5.482;2022-11-20T07:31:43;24.92;;;17.80;;
53833;SDS011;39735;51.432;5.482;2022-11-20T07:34:09;28.38;;;19.65;;
53833;SDS011;39735;51.432;5.482;2022-11-20T07:36:34;30.80;;;21.10;;
53833;SDS011;39735;51.432;5.482;2022-11-20T07:39:00;32.85;;;19.08;;
53833;SDS011;39735;51.432;5.482;2022-11-20T07:41:25;25.83;;;17.10;;
53833;SDS011;39735;51.432;5.482;2022-11-20T07:43:50;35.70;;;19.65;;
53833;SDS011;39735;51.432;5.482;2022-11-20T07:46:16;26.65;;;18.83;;
53833;SDS011;39735;51.432;5.482;2022-11-20T07:48:41;30.25;;;18.75;;
53833;SDS011;39735;51.432;5.482;2022-11-20T07:51:07;31.67;;;20.25;;
53833;SDS011;39735;51.432;5.482;2022-11-20T07:53:32;34.70;;;19.73;;
53833;SDS011;39735;51.432;5.482;2022-11-20T07:56:01;36.95;;;20.35;;
53833;SDS011;39735;51.432;5.482;2022-11-20T07:58:28;40.72;;;23.27;;
53833;SDS011;39735;51.432;5.482;2022-11-20T08:00:54;29.77;;;18.15;;
53833;SDS011;39735;51.432;5.482;2022-11-20T08:03:19;28.73;;;18.02;;
53833;SDS011;39735;51.432;5.482;2022-11-20T08:05:45;30.75;;;21.33;;
53833;SDS011;39735;51.432;5.482;2022-11-20T08:08:10;29.05;;;19.42;;
53833;SDS011;39735;51.432;5.482;2022-11-20T08:10:36;34.47;;;21.50;;
53833;SDS011;39735;51.432;5.482;2022-11-20T08:13:01;30.38;;;19.77;;
53833;SDS011;39735;51.432;5.482;2022-11-20T08:15:49;36.15;;;21.40;;
53833;SDS011;39735;51.432;5.482;2022-11-20T08:18:18;33.97;;;19.88;;
53833;SDS011;39735;51.432;5.482;2022-11-20T08:20:43;43.30;;;22.80;;
53833;SDS011;39735;51.432;5.482;2022-11-20T08:23:09;31.33;;;22.30;;
53833;SDS011;39735;51.432;5.482;2022-11-20T08:25:35;37.88;;;22.95;;
53833;SDS011;39735;51.432;5.482;2022-11-20T08:28:02;29.83;;;20.92;;
53833;SDS011;39735;51.432;5.482;2022-11-20T08:30:29;26.17;;;18.92;;
53833;SDS011;39735;51.432;5.482;2022-11-20T08:32:59;30.48;;;21.92;;
53833;SDS011;39735;51.432;5.482;2022-11-20T08:35:26;33.53;;;21.40;;
53833;SDS011;39735;51.432;5.482;2022-11-20T08:37:51;27.00;;;19.15;;
53833;SDS011;39735;51.432;5.482;2022-11-20T08:40:17;41.97;;;20.00;;
53833;SDS011;39735;51.432;5.482;2022-11-20T08:42:49;25.20;;;18.73;;
53833;SDS011;39735;51.432;5.482;2022-11-20T08:45:15;40.05;;;24.52;;
53833;SDS011;39735;51.432;5.482;2022-11-20T08:47:41;34.95;;;18.95;;
53833;SDS011;39735;51.432;5.482;2022-11-20T08:50:07;32.30;;;19.08;;
53833;SDS011;39735;51.432;5.482;2022-11-20T08:52:34;30.55;;;21.00;;
53833;SDS011;39735;51.432;5.482;2022-11-20T08:54:59;35.03;;;22.25;;
53833;SDS011;39735;51.432;5.482;2022-11-20T08:57:24;30.02;;;21.70;;
53833;SDS011;39735;51.432;5.482;2022-11-20T08:59:50;34.47;;;22.85;;
53833;SDS011;39735;51.432;5.482;2022-11-20T09:02:15;26.73;;;19.75;;
53833;SDS011;39735;51.432;5.482;2022-11-20T09:04:40;37.15;;;23.13;;
53833;SDS011;39735;51.432;5.482;2022-11-20T09:07:06;35.53;;;22.05;;
53833;SDS011;39735;51.432;5.482;2022-11-20T09:09:31;41.45;;;25.70;;
53833;SDS011;39735;51.432;5.482;2022-11-20T09:11:57;48.78;;;24.02;;
53833;SDS011;39735;51.432;5.482;2022-11-20T09:14:23;53.63;;;25.35;;
53833;SDS011;39735;51.432;5.482;2022-11-20T09:16:53;43.20;;;24.60;;
53833;SDS011;39735;51.432;5.482;2022-11-20T09:19:19;56.72;;;26.75;;
53833;SDS011;39735;51.432;5.482;2022-11-20T09:21:45;48.42;;;25.88;;
53833;SDS011;39735;51.432;5.482;2022-11-20T09:24:10;48.50;;;27.10;;
53833;SDS011;39735;51.432;5.482;2022-11-20T09:26:35;53.75;;;28.38;;
53833;SDS011;39735;51.432;5.482;2022-11-20T09:29:01;84.20;;;32.38;;
53833;SDS011;39735;51.432;5.482;2022-11-20T09:31:26;68.38;;;33.25;;
53833;SDS011;39735;51.432;5.482;2022-11-20T09:33:51;81.47;;;32.13;;
53833;SDS011;39735;51.432;5.482;2022-11-20T09:36:17;77.30;;;34.55;;
53833;SDS011;39735;51.432;5.482;2022-11-20T09:38:44;79.43;;;33.35;;
53833;SDS011;39735;51.432;5.482;2022-11-20T09:41:16;71.47;;;38.22;;
53833;SDS011;39735;51.432;5.482;2022-11-20T09:46:35;83.90;;;36.80;;
53833;SDS011;39735;51.432;5.482;2022-11-20T09:54:29;80.15;;;37.53;;
53833;SDS011;39735;51.432;5.482;2022-11-20T09:57:01;92.45;;;39.30;;
53833;SDS011;39735;51.432;5.482;2022-11-20T10:02:15;75.50;;;36.13;;
53833;SDS011;39735;51.432;5.482;2022-11-20T10:05:05;80.50;;;40.55;;
53833;SDS011;39735;51.432;5.482;2022-11-20T10:13:17;85.00;;;39.75;;
53833;SDS011;39735;51.432;5.482;2022-11-20T10:24:39;84.00;;;40.80;;
53833;SDS011;39735;51.432;5.482;2022-11-20T10:32:41;78.35;;;39.22;;
53833;SDS011;39735;51.432;5.482;2022-11-20T10:35:25;81.68;;;39.30;;
53833;SDS011;39735;51.432;5.482;2022-11-20T10:38:03;90.40;;;41.58;;
53833;SDS011;39735;51.432;5.482;2022-11-20T10:40:43;85.88;;;41.38;;
53833;SDS011;39735;51.432;5.482;2022-11-20T10:43:12;94.78;;;39.28;;
53833;SDS011;39735;51.432;5.482;2022-11-20T10:45:45;81.43;;;37.50;;
53833;SDS011;39735;51.432;5.482;2022-11-20T10:51:30;89.13;;;37.22;;
53833;SDS011;39735;51.432;5.482;2022-11-20T10:56:07;77.03;;;38.38;;
53833;SDS011;39735;51.432;5.482;2022-11-20T10:58:45;80.63;;;38.50;;
53833;SDS011;39735;51.432;5.482;2022-11-20T11:01:18;71.28;;;37.45;;
53833;SDS011;39735;51.432;5.482;2022-11-20T11:03:48;77.53;;;38.22;;
53833;SDS011;39735;51.432;5.482;2022-11-20T11:06:20;97.80;;;38.47;;
53833;SDS011;39735;51.432;5.482;2022-11-20T11:08:53;70.05;;;34.65;;
53833;SDS011;39735;51.432;5.482;2022-11-20T11:13:48;86.97;;;40.35;;
53833;SDS011;39735;51.432;5.482;2022-11-20T11:16:31;101.00;;;42.70;;
53833;SDS011;39735;51.432;5.482;2022-11-20T11:19:07;80.65;;;39.78;;
53833;SDS011;39735;51.432;5.482;2022-11-20T11:21:37;79.07;;;38.78;;
53833;SDS011;39735;51.432;5.482;2022-11-20T11:24:14;102.78;;;42.85;;
53833;SDS011;39735;51.432;5.482;2022-11-20T11:26:51;90.03;;;43.80;;
53833;SDS011;39735;51.432;5.482;2022-11-20T11:29:18;92.93;;;44.70;;
53833;SDS011;39735;51.432;5.482;2022-11-20T11:31:43;89.25;;;41.42;;
53833;SDS011;39735;51.432;5.482;2022-11-20T11:34:12;82.80;;;40.15;;
53833;SDS011;39735;51.432;5.482;2022-11-20T11:36:39;80.50;;;39.00;;
53833;SDS011;39735;51.432;5.482;2022-11-20T11:39:05;84.88;;;38.00;;
53833;SDS011;39735;51.432;5.482;2022-11-20T11:41:36;81.53;;;39.25;;
53833;SDS011;39735;51.432;5.482;2022-11-20T11:44:12;91.25;;;39.38;;
53833;SDS011;39735;51.432;5.482;2022-11-20T11:47:02;75.95;;;35.92;;
53833;SDS011;39735;51.432;5.482;2022-11-20T11:49:28;81.38;;;38.28;;
53833;SDS011;39735;51.432;5.482;2022-11-20T11:52:04;99.55;;;42.22;;
53833;SDS011;39735;51.432;5.482;2022-11-20T11:54:41;75.90;;;35.53;;
53833;SDS011;39735;51.432;5.482;2022-11-20T11:57:20;77.82;;;39.28;;
53833;SDS011;39735;51.432;5.482;2022-11-20T11:59:52;76.72;;;39.53;;
53833;SDS011;39735;51.432;5.482;2022-11-20T12:02:34;65.15;;;34.50;;
53833;SDS011;39735;51.432;5.482;2022-11-20T12:10:16;79.22;;;38.10;;
53833;SDS011;39735;51.432;5.482;2022-11-20T12:12:48;79.25;;;37.97;;
53833;SDS011;39735;51.432;5.482;2022-11-20T12:15:25;90.45;;;37.08;;
53833;SDS011;39735;51.432;5.482;2022-11-20T12:17:54;88.57;;;39.70;;
53833;SDS011;39735;51.432;5.482;2022-11-20T12:20:20;81.20;;;37.55;;
53833;SDS011;39735;51.432;5.482;2022-11-20T12:23:01;71.97;;;36.03;;
53833;SDS011;39735;51.432;5.482;2022-11-20T12:25:32;78.25;;;34.75;;
53833;SDS011;39735;51.432;5.482;2022-11-20T12:33:27;81.22;;;33.55;;
53833;SDS011;39735;51.432;5.482;2022-11-20T12:52:56;81.55;;;34.67;;
53833;SDS011;39735;51.432;5.482;2022-11-20T13:06:57;67.78;;;35.08;;
53833;SDS011;39735;51.432;5.482;2022-11-20T13:09:23;104.78;;;39.20;;
53833;SDS011;39735;51.432;5.482;2022-11-20T13:12:01;77.20;;;34.33;;
53833;SDS011;39735;51.432;5.482;2022-11-20T13:19:47;97.70;;;41.80;;
53833;SDS011;39735;51.432;5.482;2022-11-20T13:30:48;79.57;;;38.78;;
53833;SDS011;39735;51.432;5.482;2022-11-20T13:33:31;98.90;;;43.75;;
53833;SDS011;39735;51.432;5.482;2022-11-20T13:36:19;79.55;;;36.50;;
53833;SDS011;39735;51.432;5.482;2022-11-20T13:38:49;97.80;;;43.33;;
53833;SDS011;39735;51.432;5.482;2022-11-20T13:44:15;92.20;;;35.47;;
53833;SDS011;39735;51.432;5.482;2022-11-20T13:46:50;80.60;;;39.20;;
53833;SDS011;39735;51.432;5.482;2022-11-20T13:51:48;73.75;;;35.08;;
53833;SDS011;39735;51.432;5.482;2022-11-20T13:59:40;83.07;;;37.60;;
53833;SDS011;39735;51.432;5.482;2022-11-20T14:02:15;77.78;;;34.75;;
53833;SDS011;39735;51.432;5.482;2022-11-20T14:04:45;86.45;;;39.85;;
53833;SDS011;39735;51.432;5.482;2022-11-20T14:07:13;78.68;;;37.22;;
53833;SDS011;39735;51.432;5.482;2022-11-20T14:09:48;88.60;;;37.60;;
53833;SDS011;39735;51.432;5.482;2022-11-20T14:12:15;85.13;;;37.60;;
53833;SDS011;39735;51.432;5.482;2022-11-20T14:14:47;89.95;;;38.60;;
53833;SDS011;39735;51.432;5.482;2022-11-20T14:17:18;83.32;;;34.85;;
53833;SDS011;39735;51.432;5.482;2022-11-20T14:19:49;76.55;;;38.78;;
53833;SDS011;39735;51.432;5.482;2022-11-20T14:22:22;78.32;;;35.20;;
53833;SDS011;39735;51.432;5.482;2022-11-20T14:25:00;85.60;;;38.00;;
53833;SDS011;39735;51.432;5.482;2022-11-20T14:27:29;81.18;;;37.75;;
53833;SDS011;39735;51.432;5.482;2022-11-20T14:30:00;67.85;;;36.63;;
53833;SDS011;39735;51.432;5.482;2022-11-20T14:32:26;63.97;;;31.08;;
53833;SDS011;39735;51.432;5.482;2022-11-20T14:34:53;65.80;;;34.45;;
53833;SDS011;39735;51.432;5.482;2022-11-20T14:37:23;72.78;;;32.83;;
53833;SDS011;39735;51.432;5.482;2022-11-20T14:39:50;75.13;;;32.85;;
53833;SDS011;39735;51.432;5.482;2022-11-20T14:42:18;72.38;;;31.50;;
53833;SDS011;39735;51.432;5.482;2022-11-20T14:44:49;69.25;;;32.08;;
53833;SDS011;39735;51.432;5.482;2022-11-20T14:47:17;83.72;;;38.50;;
53833;SDS011;39735;51.432;5.482;2022-11-20T14:49:44;73.32;;;35.33;;
53833;SDS011;39735;51.432;5.482;2022-11-20T14:52:14;81.50;;;39.95;;
53833;SDS011;39735;51.432;5.482;2022-11-20T14:54:43;69.55;;;34.38;;
53833;SDS011;39735;51.432;5.482;2022-11-20T14:57:28;64.90;;;32.80;;
53833;SDS011;39735;51.432;5.482;2022-11-20T15:02:45;63.05;;;32.00;;
53833;SDS011;39735;51.432;5.482;2022-11-20T15:05:11;78.43;;;36.72;;
53833;SDS011;39735;51.432;5.482;2022-11-20T15:07:38;79.40;;;36.15;;
53833;SDS011;39735;51.432;5.482;2022-11-20T15:10:12;65.05;;;31.02;;
53833;SDS011;39735;51.432;5.482;2022-11-20T15:12:51;57.30;;;30.52;;
53833;SDS011;39735;51.432;5.482;2022-11-20T15:15:29;63.37;;;30.63;;
53833;SDS011;39735;51.432;5.482;2022-11-20T15:17:56;89.07;;;36.00;;
53833;SDS011;39735;51.432;5.482;2022-11-20T15:20:23;70.70;;;33.78;;
53833;SDS011;39735;51.432;5.482;2022-11-20T15:22:50;70.25;;;33.15;;
53833;SDS011;39735;51.432;5.482;2022-11-20T15:25:16;59.33;;;31.50;;
53833;SDS011;39735;51.432;5.482;2022-11-20T15:27:42;64.53;;;29.83;;
53833;SDS011;39735;51.432;5.482;2022-11-20T15:30:12;64.72;;;33.08;;
53833;SDS011;39735;51.432;5.482;2022-11-20T15:32:42;55.90;;;29.80;;
53833;SDS011;39735;51.432;5.482;2022-11-20T15:35:08;67.72;;;33.50;;
53833;SDS011;39735;51.432;5.482;2022-11-20T15:37:34;72.43;;;32.97;;
53833;SDS011;39735;51.432;5.482;2022-11-20T15:40:00;82.45;;;37.40;;
53833;SDS011;39735;51.432;5.482;2022-11-20T15:42:25;69.80;;;34.40;;
53833;SDS011;39735;51.432;5.482;2022-11-20T15:44:51;81.25;;;33.78;;
53833;SDS011;39735;51.432;5.482;2022-11-20T15:47:16;72.45;;;32.20;;
53833;SDS011;39735;51.432;5.482;2022-11-20T15:49:42;53.50;;;28.60;;
53833;SDS011;39735;51.432;5.482;2022-11-20T15:52:08;55.90;;;28.27;;
53833;SDS011;39735;51.432;5.482;2022-11-20T15:54:34;65.00;;;28.30;;
53833;SDS011;39735;51.432;5.482;2022-11-20T15:56:59;55.40;;;27.92;;
53833;SDS011;39735;51.432;5.482;2022-11-20T15:59:25;61.08;;;26.83;;
53833;SDS011;39735;51.432;5.482;2022-11-20T16:01:51;62.65;;;29.10;;
53833;SDS011;39735;51.432;5.482;2022-11-20T16:04:16;55.95;;;27.58;;
53833;SDS011;39735;51.432;5.482;2022-11-20T16:06:43;48.58;;;25.17;;
53833;SDS011;39735;51.432;5.482;2022-11-20T16:09:08;56.85;;;27.35;;
53833;SDS011;39735;51.432;5.482;2022-11-20T16:11:35;54.33;;;25.42;;
53833;SDS011;39735;51.432;5.482;2022-11-20T16:14:01;46.50;;;24.48;;
53833;SDS011;39735;51.432;5.482;2022-11-20T16:16:57;53.42;;;24.23;;
53833;SDS011;39735;51.432;5.482;2022-11-20T16:19:22;55.22;;;21.05;;
53833;SDS011;39735;51.432;5.482;2022-11-20T16:21:47;44.97;;;22.65;;
53833;SDS011;39735;51.432;5.482;2022-11-20T16:24:13;38.85;;;20.10;;